createdAt,value
2018-03-21T00:01:51.402Z,74.75
2018-03-21T00:04:17.362Z,73.05
2018-03-21T00:06:43.313Z,73.93
2018-03-21T00:09:09.332Z,73.88
2018-03-21T00:11:35.751Z,73.27
2018-03-21T00:14:01.830Z,73.27
2018-03-21T00:16:27.765Z,72.67
2018-03-21T00:18:53.779Z,72.57
2018-03-21T00:21:19.796Z,72.27
2018-03-21T00:23:46.772Z,72.50
2018-03-21T00:26:12.812Z,72.59
2018-03-21T00:28:38.833Z,72.34
2018-03-21T00:31:04.904Z,72.53
2018-03-21T00:33:30.890Z,72.76
2018-03-21T00:35:57.082Z,73.28
2018-03-21T00:38:23.089Z,73.81
2018-03-21T00:40:49.221Z,73.76
2018-03-21T00:43:15.248Z,73.87
2018-03-21T00:45:41.322Z,74.17
2018-03-21T00:48:07.330Z,74.10
2018-03-21T00:50:33.326Z,74.49
2018-03-21T00:52:59.326Z,74.63
2018-03-21T00:55:25.325Z,74.59
2018-03-21T00:57:51.305Z,74.55
2018-03-21T01:00:17.676Z,75.00
2018-03-21T01:02:43.688Z,74.99
2018-03-21T01:05:09.765Z,74.82
2018-03-21T01:07:35.819Z,75.28
2018-03-21T01:10:01.815Z,75.01
2018-03-21T01:12:27.838Z,75.03
2018-03-21T01:14:53.816Z,74.85
2018-03-21T01:17:19.844Z,74.97
2018-03-21T01:19:45.821Z,74.40
2018-03-21T01:22:11.769Z,74.00
2018-03-21T01:24:37.814Z,74.34
2018-03-21T01:27:03.812Z,74.47
2018-03-21T01:29:29.863Z,74.43
2018-03-21T01:31:55.874Z,74.26
2018-03-21T01:34:21.893Z,74.77
2018-03-21T01:36:47.905Z,74.48
2018-03-21T01:39:13.941Z,74.27
2018-03-21T01:41:40.013Z,74.48
2018-03-21T01:44:05.958Z,74.16
2018-03-21T01:46:31.991Z,74.32
2018-03-21T01:48:57.998Z,73.51
2018-03-21T01:51:23.991Z,73.29
2018-03-21T01:53:50.045Z,73.50
2018-03-21T01:56:16.057Z,73.33
2018-03-21T01:58:42.023Z,73.87
2018-03-21T02:01:08.141Z,72.90
2018-03-21T02:03:34.212Z,72.39
2018-03-21T02:06:00.207Z,71.95
2018-03-21T02:08:26.225Z,72.07
2018-03-21T02:10:52.231Z,71.76
2018-03-21T02:13:18.249Z,72.49
2018-03-21T02:15:44.245Z,72.12
2018-03-21T02:18:10.298Z,72.23
2018-03-21T02:20:36.370Z,72.79
2018-03-21T02:23:02.360Z,72.06
2018-03-21T02:25:28.382Z,72.31
2018-03-21T02:27:54.370Z,72.47
2018-03-21T02:30:20.391Z,72.96
2018-03-21T02:32:46.355Z,72.85
2018-03-21T02:35:12.346Z,73.44
2018-03-21T02:37:38.351Z,73.58
2018-03-21T02:40:04.389Z,74.08
2018-03-21T02:42:30.414Z,74.20
2018-03-21T02:44:56.482Z,74.33
2018-03-21T02:47:22.533Z,74.60
2018-03-21T02:49:48.535Z,74.64
2018-03-21T02:52:14.566Z,74.52
2018-03-21T02:54:40.603Z,74.75
2018-03-21T02:57:06.565Z,74.95
2018-03-21T02:59:32.574Z,75.17
2018-03-21T03:01:58.622Z,75.26
2018-03-21T03:04:24.650Z,75.71
2018-03-21T03:06:50.691Z,75.56
2018-03-21T03:09:16.677Z,76.09
2018-03-21T03:11:42.704Z,76.75
2018-03-21T03:14:08.728Z,77.39
2018-03-21T03:16:34.736Z,77.64
2018-03-21T03:19:00.772Z,78.25
2018-03-21T03:21:26.760Z,78.22
2018-03-21T03:23:52.798Z,78.64
2018-03-21T03:26:18.802Z,78.81
2018-03-21T03:28:44.848Z,79.02
2018-03-21T03:31:10.912Z,79.32
2018-03-21T03:33:37.533Z,79.30
2018-03-21T03:36:03.574Z,79.56
2018-03-21T03:38:29.588Z,79.93
2018-03-21T03:40:55.617Z,79.91
2018-03-21T03:43:21.664Z,80.34
2018-03-21T03:45:47.697Z,80.38
2018-03-21T03:48:13.694Z,80.64
2018-03-21T03:50:39.749Z,80.70
2018-03-21T03:53:05.773Z,80.79
2018-03-21T03:55:31.848Z,80.51
2018-03-21T03:57:57.794Z,80.70
2018-03-21T04:00:23.865Z,81.11
2018-03-21T04:02:49.885Z,80.98
2018-03-21T04:05:15.905Z,81.10
2018-03-21T04:07:41.957Z,81.07
2018-03-21T04:10:07.981Z,81.21
2018-03-21T04:12:34.206Z,81.19
2018-03-21T04:15:00.203Z,81.37
2018-03-21T04:17:26.416Z,81.18
2018-03-21T04:19:52.403Z,81.08
2018-03-21T04:22:18.489Z,81.25
2018-03-21T04:24:44.527Z,80.95
2018-03-21T04:27:10.598Z,80.95
2018-03-21T04:29:36.633Z,80.59
2018-03-21T04:32:02.629Z,81.27
2018-03-21T04:34:28.664Z,81.47
2018-03-21T04:36:54.738Z,81.42
2018-03-21T04:39:20.773Z,81.24
2018-03-21T04:41:46.861Z,81.16
2018-03-21T04:44:12.906Z,81.54
2018-03-21T04:46:38.981Z,81.79
2018-03-21T04:49:05.062Z,81.91
2018-03-21T04:51:31.137Z,81.62
2018-03-21T04:53:57.168Z,81.43
2018-03-21T04:56:23.222Z,81.61
2018-03-21T04:58:49.270Z,80.89
2018-03-21T05:01:15.306Z,81.58
2018-03-21T05:03:41.256Z,81.30
2018-03-21T05:06:07.329Z,81.60
2018-03-21T05:08:33.301Z,81.08
2018-03-21T05:10:59.326Z,81.33
2018-03-21T05:13:25.554Z,81.22
2018-03-21T05:15:51.592Z,81.66
2018-03-21T05:18:17.728Z,82.74
2018-03-21T05:20:43.763Z,81.88
2018-03-21T05:23:09.981Z,82.22
2018-03-21T05:25:35.976Z,82.37
2018-03-21T05:28:02.099Z,82.32
2018-03-21T05:30:28.126Z,82.33
2018-03-21T05:32:54.182Z,81.80
2018-03-21T05:35:20.181Z,81.38
2018-03-21T05:37:46.209Z,80.91
2018-03-21T05:40:12.234Z,79.73
2018-03-21T05:42:38.250Z,79.57
2018-03-21T05:45:04.429Z,79.82
2018-03-21T05:47:30.474Z,79.19
2018-03-21T05:49:56.524Z,78.68
2018-03-21T05:52:23.484Z,79.07
2018-03-21T05:54:49.530Z,78.51
2018-03-21T05:57:15.474Z,78.71
2018-03-21T05:59:41.476Z,78.89
2018-03-21T06:02:07.541Z,79.05
2018-03-21T06:04:33.517Z,79.05
2018-03-21T06:06:59.543Z,79.79
2018-03-21T06:09:25.574Z,79.67
2018-03-21T06:11:51.561Z,79.05
2018-03-21T06:14:17.549Z,79.07
2018-03-21T06:16:43.609Z,78.73
2018-03-21T06:19:09.637Z,79.10
2018-03-21T06:21:35.666Z,79.38
2018-03-21T06:24:01.692Z,78.86
2018-03-21T06:26:27.710Z,78.90
2018-03-21T06:28:53.710Z,78.74
2018-03-21T06:31:19.681Z,77.94
2018-03-21T06:33:45.745Z,77.53
2018-03-21T06:36:11.734Z,76.43
2018-03-21T06:38:37.825Z,75.94
2018-03-21T06:41:03.846Z,76.39
2018-03-21T06:43:29.874Z,75.40
2018-03-21T06:45:55.898Z,74.48
2018-03-21T06:48:21.993Z,73.82
2018-03-21T06:50:47.992Z,74.17
2018-03-21T06:53:14.012Z,73.71
2018-03-21T06:55:40.206Z,73.02
2018-03-21T06:58:06.233Z,72.66
2018-03-21T07:00:32.273Z,72.33
2018-03-21T07:02:58.306Z,71.78
2018-03-21T07:05:24.257Z,71.52
2018-03-21T07:07:50.386Z,70.63
2018-03-21T07:10:16.391Z,69.94
2018-03-21T07:12:42.421Z,69.83
2018-03-21T07:15:20.684Z,68.93
2018-03-21T07:17:46.700Z,69.00
2018-03-21T07:20:12.821Z,68.14
2018-03-21T07:22:38.799Z,67.04
2018-03-21T07:25:04.867Z,66.81
2018-03-21T07:27:30.892Z,66.96
2018-03-21T07:29:56.910Z,66.41
2018-03-21T07:32:22.933Z,66.11
2018-03-21T07:34:49.015Z,62.91
2018-03-21T07:37:14.989Z,62.28
2018-03-21T07:39:41.061Z,61.62
2018-03-21T07:42:07.043Z,60.60
2018-03-21T07:44:33.033Z,61.23
2018-03-21T07:46:59.053Z,59.86
2018-03-21T07:49:25.125Z,60.00
2018-03-21T07:51:51.107Z,60.73
2018-03-21T07:54:17.134Z,60.05
2018-03-21T07:56:43.216Z,61.29
2018-03-21T07:59:09.249Z,60.65
2018-03-21T08:01:35.255Z,61.11
2018-03-21T08:04:01.349Z,60.28
2018-03-21T08:06:27.380Z,61.83
2018-03-21T08:08:53.356Z,59.39
2018-03-21T08:11:19.349Z,58.53
2018-03-21T08:13:45.405Z,59.75
2018-03-21T08:16:11.436Z,57.93
2018-03-21T08:18:37.428Z,57.48
2018-03-21T08:21:03.497Z,59.13
2018-03-21T08:23:29.473Z,58.85
2018-03-21T08:25:55.497Z,60.82
2018-03-21T08:28:21.582Z,58.73
2018-03-21T08:30:47.642Z,59.03
2018-03-21T08:33:13.717Z,59.92
2018-03-21T08:35:39.760Z,57.22
2018-03-21T08:38:05.854Z,58.06
2018-03-21T08:40:31.893Z,58.41
2018-03-21T08:42:57.974Z,56.56
2018-03-21T08:45:24.017Z,55.89
2018-03-21T08:47:49.996Z,54.12
2018-03-21T08:50:15.998Z,53.65
2018-03-21T08:52:41.993Z,54.13
2018-03-21T08:55:08.023Z,54.24
2018-03-21T08:57:34.053Z,54.23
2018-03-21T09:00:00.103Z,54.84
2018-03-21T09:02:26.185Z,54.61
2018-03-21T09:04:52.175Z,55.32
2018-03-21T09:07:18.221Z,54.52
2018-03-21T09:09:44.217Z,55.43
2018-03-21T09:12:10.315Z,54.03
2018-03-21T09:14:36.322Z,51.69
2018-03-21T09:17:02.421Z,52.34
2018-03-21T09:19:28.439Z,50.82
2018-03-21T09:21:54.489Z,51.53
2018-03-21T09:24:20.562Z,52.13
2018-03-21T09:26:46.595Z,51.08
2018-03-21T09:29:12.557Z,51.39
2018-03-21T09:31:38.498Z,52.21
2018-03-21T09:34:04.743Z,52.00
2018-03-21T09:36:30.700Z,53.80
2018-03-21T09:38:56.728Z,53.83
2018-03-21T09:41:22.818Z,53.37
2018-03-21T09:43:48.812Z,53.39
2018-03-21T09:46:14.882Z,51.97
2018-03-21T09:48:40.870Z,51.49
2018-03-21T09:51:06.843Z,50.50
2018-03-21T09:53:32.850Z,51.38
2018-03-21T09:55:58.900Z,52.32
2018-03-21T09:58:24.913Z,49.74
2018-03-21T10:00:51.054Z,50.58
2018-03-21T10:03:17.166Z,50.11
2018-03-21T10:05:43.193Z,48.97
2018-03-21T10:08:09.225Z,48.35
2018-03-21T10:10:35.217Z,46.93
2018-03-21T10:13:01.264Z,46.21
2018-03-21T10:15:27.297Z,48.44
2018-03-21T10:17:53.352Z,46.80
2018-03-21T10:20:19.390Z,47.00
2018-03-21T10:22:45.426Z,49.19
2018-03-21T10:25:11.434Z,46.52
2018-03-21T10:27:37.421Z,47.90
2018-03-21T10:30:03.666Z,43.95
2018-03-21T10:32:29.670Z,43.87
2018-03-21T10:34:55.740Z,42.27
2018-03-21T10:37:21.809Z,42.66
2018-03-21T10:39:47.833Z,42.67
2018-03-21T10:42:13.919Z,43.28
2018-03-21T10:44:39.961Z,42.18
2018-03-21T10:47:05.969Z,41.21
2018-03-21T10:49:31.990Z,40.27
2018-03-21T10:51:58.081Z,38.69
2018-03-21T10:54:24.204Z,40.06
2018-03-21T10:56:50.158Z,41.93
2018-03-21T10:59:16.166Z,41.58
2018-03-21T11:01:42.154Z,37.56
2018-03-21T11:04:08.234Z,38.12
2018-03-21T11:06:34.294Z,37.66
2018-03-21T11:09:00.313Z,37.96
2018-03-21T11:11:26.344Z,37.33
2018-03-21T11:13:52.348Z,35.44
2018-03-21T11:16:18.413Z,36.06
2018-03-21T11:18:44.410Z,34.91
2018-03-21T11:21:10.522Z,33.30
2018-03-21T11:23:36.470Z,36.12
2018-03-21T11:26:02.465Z,33.86
2018-03-21T11:28:28.498Z,33.86
2018-03-21T11:30:54.544Z,33.16
2018-03-21T11:33:20.585Z,34.54
2018-03-21T11:35:46.645Z,32.63
2018-03-21T11:38:12.713Z,30.77
2018-03-21T11:40:38.785Z,30.96
2018-03-21T11:43:04.797Z,28.93
2018-03-21T11:45:30.893Z,28.51
2018-03-21T11:47:56.919Z,29.11
2018-03-21T11:50:22.987Z,28.59
2018-03-21T11:52:49.033Z,29.32
2018-03-21T11:55:15.063Z,28.89
2018-03-21T11:57:41.098Z,30.26
2018-03-21T12:00:07.258Z,29.17
2018-03-21T12:02:33.272Z,29.18
2018-03-21T12:04:59.244Z,28.85
2018-03-21T12:07:25.292Z,30.79
2018-03-21T12:09:51.367Z,28.73
2018-03-21T12:12:17.401Z,26.71
2018-03-21T12:14:43.462Z,28.45
2018-03-21T12:17:09.511Z,26.27
2018-03-21T12:19:35.518Z,26.70
2018-03-21T12:22:01.551Z,25.67
2018-03-21T12:24:27.487Z,26.36
2018-03-21T12:26:53.489Z,26.85
2018-03-21T12:29:19.505Z,26.83
2018-03-21T12:31:45.479Z,26.26
2018-03-21T12:34:11.511Z,26.20
2018-03-21T12:36:37.537Z,26.18
2018-03-21T12:39:03.529Z,25.24
2018-03-21T12:41:29.562Z,25.68
2018-03-21T12:43:55.657Z,24.42
2018-03-21T12:46:21.678Z,23.93
2018-03-21T12:48:47.682Z,25.63
2018-03-21T12:51:13.710Z,24.98
2018-03-21T12:53:39.711Z,23.99
2018-03-21T12:56:06.028Z,24.05
2018-03-21T12:58:31.937Z,23.64
2018-03-21T13:00:57.948Z,22.82
2018-03-21T13:03:23.977Z,23.24
2018-03-21T13:05:49.920Z,22.50
2018-03-21T13:08:15.957Z,21.00
2018-03-21T13:10:41.961Z,20.64
2018-03-21T13:13:08.007Z,21.68
2018-03-21T13:15:34.034Z,22.21
2018-03-21T13:18:00.076Z,23.80
2018-03-21T13:20:26.119Z,24.11
2018-03-21T13:22:52.130Z,23.25
2018-03-21T13:25:18.163Z,23.25
2018-03-21T13:27:44.190Z,22.81
2018-03-21T13:30:10.371Z,23.46
2018-03-21T13:32:36.388Z,25.58
2018-03-21T13:35:02.650Z,25.85
2018-03-21T13:37:28.701Z,26.28
2018-03-21T13:39:54.790Z,25.88
2018-03-21T13:42:20.903Z,25.71
2018-03-21T13:44:46.914Z,23.52
2018-03-21T13:47:12.998Z,23.21
2018-03-21T13:49:39.054Z,23.43
2018-03-21T13:52:05.197Z,22.97
2018-03-21T13:54:31.234Z,24.12
2018-03-21T13:56:57.230Z,25.92
2018-03-21T13:59:23.266Z,24.79
2018-03-21T14:01:49.269Z,25.95
2018-03-21T14:04:15.272Z,28.05
2018-03-21T14:06:41.289Z,29.08
2018-03-21T14:09:07.375Z,27.89
2018-03-21T14:11:33.420Z,27.88
2018-03-21T14:13:59.436Z,26.78
2018-03-21T14:16:25.466Z,26.86
2018-03-21T14:18:51.473Z,27.16
2018-03-21T14:21:17.553Z,26.54
2018-03-21T14:23:43.538Z,24.85
2018-03-21T14:26:09.596Z,26.72
2018-03-21T14:28:35.643Z,27.03
2018-03-21T14:31:01.678Z,26.81
2018-03-21T14:33:27.713Z,27.57
2018-03-21T14:35:53.794Z,25.89
2018-03-21T14:38:19.877Z,25.49
2018-03-21T14:40:45.882Z,23.30
2018-03-21T14:43:11.921Z,22.95
2018-03-21T14:45:37.962Z,22.86
2018-03-21T14:48:03.966Z,24.31
2018-03-21T14:50:29.987Z,23.59
2018-03-21T14:52:56.074Z,24.62
2018-03-21T14:55:22.089Z,24.06
2018-03-21T14:57:48.100Z,21.66
2018-03-21T15:00:14.201Z,22.53
2018-03-21T15:02:40.230Z,23.52
2018-03-21T15:05:06.423Z,21.62
2018-03-21T15:07:32.569Z,22.34
2018-03-21T15:09:58.628Z,23.88
2018-03-21T15:12:24.642Z,23.83
2018-03-21T15:14:50.678Z,25.10
2018-03-21T15:17:16.637Z,23.90
2018-03-21T15:19:42.694Z,23.88
2018-03-21T15:22:08.701Z,24.74
2018-03-21T15:24:34.729Z,25.46
2018-03-21T15:27:00.745Z,26.00
2018-03-21T15:29:27.290Z,26.19
2018-03-21T15:31:53.206Z,26.77
2018-03-21T15:34:19.536Z,28.25
2018-03-21T15:36:46.102Z,29.44
2018-03-21T15:39:12.160Z,28.73
2018-03-21T15:41:38.194Z,30.23
2018-03-21T15:44:04.245Z,32.25
2018-03-21T15:46:30.345Z,32.41
2018-03-21T15:48:56.413Z,33.21
2018-03-21T15:51:22.465Z,33.53
2018-03-21T15:53:48.550Z,33.99
2018-03-21T15:56:14.751Z,34.07
2018-03-21T15:58:40.682Z,34.71
2018-03-21T16:01:06.715Z,34.31
2018-03-21T16:03:32.725Z,34.71
2018-03-21T16:05:58.740Z,34.66
2018-03-21T16:08:25.330Z,34.39
2018-03-21T16:10:51.493Z,34.44
2018-03-21T16:13:17.548Z,33.62
2018-03-21T16:15:43.538Z,34.40
2018-03-21T16:18:09.687Z,33.84
2018-03-21T16:20:35.882Z,33.53
2018-03-21T16:23:01.973Z,34.17
2018-03-21T16:25:28.030Z,34.42
2018-03-21T16:27:54.124Z,34.49
2018-03-21T16:30:20.188Z,34.07
2018-03-21T16:32:46.236Z,34.48
2018-03-21T16:35:12.352Z,35.24
2018-03-21T16:37:38.336Z,35.75
2018-03-21T16:40:04.478Z,35.56
2018-03-21T16:42:30.528Z,35.05
2018-03-21T16:44:56.588Z,35.85
2018-03-21T16:47:22.562Z,35.17
2018-03-21T16:49:49.337Z,36.05
2018-03-21T16:52:15.378Z,36.30
2018-03-21T16:54:41.463Z,35.54
2018-03-21T16:57:07.508Z,35.83
2018-03-21T16:59:33.550Z,35.46
2018-03-21T17:01:59.610Z,34.99
2018-03-21T17:04:25.653Z,35.63
2018-03-21T17:06:51.689Z,35.95
2018-03-21T17:09:17.714Z,35.42
2018-03-21T17:11:43.740Z,35.03
2018-03-21T17:14:09.804Z,35.03
2018-03-21T17:16:35.844Z,35.72
2018-03-21T17:19:01.862Z,35.32
2018-03-21T17:21:27.901Z,35.46
2018-03-21T17:23:53.921Z,34.87
2018-03-21T17:26:19.977Z,34.91
2018-03-21T17:28:45.974Z,34.95
2018-03-21T17:31:11.970Z,34.90
2018-03-21T17:33:37.976Z,35.15
2018-03-21T17:36:03.950Z,34.63
2018-03-21T17:38:29.972Z,34.46
2018-03-21T17:40:56.033Z,34.60
2018-03-21T17:43:22.117Z,34.17
2018-03-21T17:45:48.194Z,33.87
2018-03-21T17:48:14.230Z,34.74
2018-03-21T17:50:40.234Z,34.91
2018-03-21T17:53:06.278Z,34.85
2018-03-21T17:55:32.270Z,35.23
2018-03-21T17:57:58.309Z,36.33
2018-03-21T18:00:24.386Z,37.48
2018-03-21T18:02:50.331Z,38.06
2018-03-21T18:05:16.439Z,38.70
2018-03-21T18:07:42.464Z,39.18
2018-03-21T18:10:08.518Z,40.36
2018-03-21T18:12:34.656Z,40.12
2018-03-21T18:15:00.725Z,40.55
2018-03-21T18:17:26.753Z,41.23
2018-03-21T18:19:52.869Z,42.40
2018-03-21T18:22:18.982Z,42.96
2018-03-21T18:24:45.105Z,44.00
2018-03-21T18:27:11.087Z,45.13
2018-03-21T18:29:37.082Z,45.99
2018-03-21T18:32:03.285Z,46.09
2018-03-21T18:34:29.325Z,47.33
2018-03-21T18:36:55.419Z,46.64
2018-03-21T18:39:21.510Z,47.30
2018-03-21T18:41:47.517Z,46.12
2018-03-21T18:44:13.556Z,47.61
2018-03-21T18:46:39.893Z,46.87
2018-03-21T18:49:05.868Z,47.14
2018-03-21T18:51:32.190Z,47.63
2018-03-21T18:53:58.294Z,47.96
2018-03-21T18:56:24.428Z,50.45
2018-03-21T18:58:50.461Z,51.24
2018-03-21T19:01:16.600Z,51.45
2018-03-21T19:03:42.700Z,49.96
2018-03-21T19:06:08.754Z,50.53
2018-03-21T19:08:34.882Z,51.68
2018-03-21T19:11:00.957Z,51.85
2018-03-21T19:13:27.089Z,51.46
2018-03-21T19:15:53.100Z,50.30
2018-03-21T19:18:19.179Z,50.78
2018-03-21T19:20:45.287Z,52.34
2018-03-21T19:23:11.563Z,54.25
2018-03-21T19:25:37.595Z,51.93
2018-03-21T19:28:03.667Z,52.05
2018-03-21T19:30:29.720Z,52.25
2018-03-21T19:32:55.733Z,52.17
2018-03-21T19:35:21.870Z,51.70
2018-03-21T19:37:48.925Z,52.33
2018-03-21T19:40:15.023Z,53.01
2018-03-21T19:42:41.123Z,53.55
2018-03-21T19:45:31.141Z,53.72
2018-03-21T19:47:59.284Z,52.96
2018-03-21T19:50:25.341Z,52.50
2018-03-21T19:52:51.371Z,52.96
2018-03-21T19:55:17.432Z,53.57
2018-03-21T19:57:43.467Z,53.11
2018-03-21T20:00:09.586Z,53.17
2018-03-21T20:02:35.612Z,53.71
2018-03-21T20:05:01.776Z,55.42
2018-03-21T20:07:27.761Z,56.48
2018-03-21T20:09:53.833Z,59.40
2018-03-21T20:12:19.885Z,59.49
2018-03-21T20:14:45.905Z,59.00
2018-03-21T20:17:11.988Z,58.83
2018-03-21T20:19:38.006Z,58.38
2018-03-21T20:22:04.049Z,57.88
2018-03-21T20:24:30.135Z,57.95
2018-03-21T20:26:56.224Z,57.90
2018-03-21T20:29:22.265Z,57.67
2018-03-21T20:31:48.294Z,57.27
2018-03-21T20:34:14.357Z,57.33
2018-03-21T20:36:40.454Z,57.38
2018-03-21T20:39:06.445Z,57.37
2018-03-21T20:41:32.569Z,58.81
2018-03-21T20:43:58.613Z,60.41
2018-03-21T20:46:24.659Z,61.88
2018-03-21T20:48:50.648Z,61.76
2018-03-21T20:51:17.075Z,61.70
2018-03-21T20:53:43.112Z,61.16
2018-03-21T20:56:09.161Z,61.26
2018-03-21T20:58:35.130Z,61.40
2018-03-21T21:01:01.155Z,61.38
2018-03-21T21:03:27.221Z,61.55
2018-03-21T21:05:53.331Z,61.25
2018-03-21T21:08:19.317Z,61.65
2018-03-21T21:10:45.330Z,61.84
2018-03-21T21:13:11.368Z,62.01
2018-03-21T21:15:37.394Z,62.00
2018-03-21T21:18:03.409Z,61.84
2018-03-21T21:20:29.440Z,61.70
2018-03-21T21:22:55.492Z,61.40
2018-03-21T21:25:21.557Z,61.06
2018-03-21T21:27:47.559Z,60.85
2018-03-21T21:30:13.605Z,60.69
2018-03-21T21:32:39.642Z,61.15
2018-03-21T21:35:05.767Z,61.47
2018-03-21T21:37:31.806Z,62.99
2018-03-21T21:39:57.826Z,63.23
2018-03-21T21:42:23.860Z,64.27
2018-03-21T21:44:49.886Z,65.31
2018-03-21T21:47:15.906Z,65.39
2018-03-21T21:49:41.974Z,65.84
2018-03-21T21:52:07.967Z,65.14
2018-03-21T21:54:34.014Z,64.24
2018-03-21T21:57:00.012Z,64.56
2018-03-21T21:59:26.029Z,64.50
2018-03-21T22:01:52.203Z,64.46
2018-03-21T22:04:18.258Z,63.75
2018-03-21T22:06:44.284Z,63.46
2018-03-21T22:09:11.046Z,63.77
2018-03-21T22:11:37.081Z,64.36
2018-03-21T22:14:03.073Z,65.12
2018-03-21T22:16:29.152Z,65.07
2018-03-21T22:18:55.165Z,66.56
2018-03-21T22:21:21.299Z,65.76
2018-03-21T22:23:47.329Z,66.20
2018-03-21T22:26:13.328Z,66.33
2018-03-21T22:28:39.382Z,66.36
2018-03-21T22:31:05.372Z,66.08
2018-03-21T22:33:31.411Z,65.44
2018-03-21T22:35:57.470Z,65.88
2018-03-21T22:38:23.474Z,66.40
2018-03-21T22:40:49.537Z,65.74
2018-03-21T22:43:15.537Z,65.18
2018-03-21T22:45:41.545Z,65.69
2018-03-21T22:48:07.574Z,65.72
2018-03-21T22:50:33.594Z,65.48
2018-03-21T22:52:59.604Z,65.58
2018-03-21T22:55:25.648Z,65.85
2018-03-21T22:57:51.663Z,65.73
2018-03-21T23:00:19.770Z,65.96
2018-03-21T23:02:45.824Z,65.29
2018-03-21T23:05:11.862Z,66.11
2018-03-21T23:07:37.903Z,67.50
2018-03-21T23:10:04.097Z,67.25
2018-03-21T23:12:30.267Z,66.92
2018-03-21T23:14:56.283Z,65.75
2018-03-21T23:17:22.315Z,66.41
2018-03-21T23:19:48.322Z,66.98
2018-03-21T23:22:14.323Z,66.59
2018-03-21T23:24:40.325Z,67.12
2018-03-21T23:27:06.365Z,67.43
2018-03-21T23:29:32.389Z,67.97
2018-03-21T23:31:58.453Z,69.11
2018-03-21T23:34:24.451Z,71.10
2018-03-21T23:36:50.512Z,70.27
2018-03-21T23:39:16.598Z,69.88
2018-03-21T23:41:42.622Z,69.57
2018-03-21T23:44:08.671Z,69.21
2018-03-21T23:46:34.670Z,68.39
2018-03-21T23:49:00.686Z,68.45
2018-03-21T23:51:26.698Z,68.02
2018-03-21T23:53:52.744Z,68.66
2018-03-21T23:56:18.798Z,69.31
2018-03-21T23:58:44.835Z,68.68
